Time;durP1;ratioP1;P1;durP2;ratioP2;P2;SDS_P1;SDS_P2;PMS_P1;PMS_P2;Temp;Humidity;BMP_temperature;BMP_pressure;BME280_temperature;BME280_humidity;BME280_pressure;Samples;Min_cycle;Max_cycle;Signal;HPM_P1;HPM_P2
2022/07/01 00:00:47;;;;;;;;;1.00;1.00;;;;;31.19;26.15;101157.41;5038688;28;46064;-80
2022/07/01 00:03:13;;;;;;;;;1.33;1.33;;;;;31.28;26.34;101173.28;5038609;28;45236;-80
2022/07/01 00:05:38;;;;;;;;;0.67;0.00;;;;;31.34;26.25;101187.59;5020234;28;45440;-80
2022/07/01 00:08:04;;;;;;;;;0.67;0.67;;;;;31.39;26.36;101188.19;5020185;28;48216;-80
2022/07/01 00:10:29;;;;;;;;;0.00;0.00;;;;;31.37;26.49;101181.94;5020480;28;45309;-80
2022/07/01 00:12:54;;;;;;;;;0.67;0.67;;;;;31.16;26.85;101145.75;5038358;28;45563;-80
2022/07/01 00:15:20;;;;;;;;;1.00;1.00;;;;;31.43;25.96;101173.31;5038278;28;45583;-80
2022/07/01 00:17:45;;;;;;;;;0.67;0.67;;;;;31.40;26.26;101173.50;5020174;28;48245;-80
2022/07/01 00:20:11;;;;;;;;;2.33;1.00;;;;;31.40;26.36;101179.84;5037776;28;45207;-80
2022/07/01 00:22:36;;;;;;;;;0.67;0.67;;;;;31.41;26.17;101188.97;5038253;28;45285;-80
2022/07/01 00:25:02;;;;;;;;;1.67;0.00;;;;;31.41;26.42;101198.09;5038302;28;45206;-80
2022/07/01 00:27:27;;;;;;;;;0.67;0.67;;;;;31.24;26.14;101184.53;5037688;28;45450;-80
2022/07/01 00:29:53;;;;;;;;;0.67;0.67;;;;;31.21;26.40;101195.66;5038034;28;45265;-80
2022/07/01 00:32:18;;;;;;;;;0.67;0.67;;;;;31.05;26.50;101182.03;5019738;28;45856;-80
2022/07/01 00:34:43;;;;;;;;;0.00;0.00;;;;;31.16;26.71;101200.56;5037613;28;45466;-80
2022/07/01 00:37:09;;;;;;;;;0.67;0.67;;;;;31.13;26.46;101196.16;5037651;28;46375;-80
2022/07/01 00:39:35;;;;;;;;;1.00;1.00;;;;;31.25;26.66;101203.63;5038028;28;45442;-80
2022/07/01 00:42:03;;;;;;;;;1.00;1.00;;;;;31.32;26.55;101212.34;5038012;28;45478;-79
2022/07/01 00:44:29;;;;;;;;;0.00;0.00;;;;;31.38;26.59;101211.09;5037940;28;45166;-80
2022/07/01 00:46:56;;;;;;;;;1.00;1.00;;;;;31.31;26.65;101207.84;5037784;28;45344;-80
2022/07/01 00:49:21;;;;;;;;;0.67;0.67;;;;;31.26;26.27;101196.28;5037461;28;45265;-80
2022/07/01 00:51:47;;;;;;;;;1.00;1.00;;;;;31.25;26.68;101194.50;5037961;28;45258;-80
2022/07/01 00:54:13;;;;;;;;;2.00;1.00;;;;;31.43;26.46;101222.66;5037947;28;45539;-80
2022/07/01 00:56:38;;;;;;;;;1.00;1.00;;;;;31.53;26.93;101228.47;5037492;28;46367;-80
2022/07/01 00:59:04;;;;;;;;;1.00;1.00;;;;;31.67;26.32;101230.38;5037596;28;45406;-80
2022/07/01 01:01:29;;;;;;;;;1.33;1.33;;;;;31.64;26.56;101221.38;5037652;28;45451;-79
2022/07/01 01:03:55;;;;;;;;;1.33;1.33;;;;;31.77;26.85;101229.72;5037366;28;45444;-80
2022/07/01 01:06:21;;;;;;;;;1.67;1.67;;;;;31.79;26.96;101235.97;5037087;28;46514;-80
2022/07/01 01:08:48;;;;;;;;;1.00;1.00;;;;;31.76;26.76;101221.59;5037523;28;45428;-80
2022/07/01 01:11:15;;;;;;;;;0.67;0.67;;;;;31.74;26.91;101218.91;5019618;28;45340;-80
2022/07/01 01:13:40;;;;;;;;;1.00;1.00;;;;;31.68;26.84;101219.31;5037601;28;45254;-80
2022/07/01 01:16:06;;;;;;;;;2.00;1.00;;;;;31.54;26.54;101200.06;5037029;28;45983;-80
2022/07/01 01:18:33;;;;;;;;;0.00;0.00;;;;;31.86;26.28;101235.59;5037058;28;45261;-80
2022/07/01 01:20:59;;;;;;;;;1.00;1.00;;;;;31.70;26.82;101222.84;5037705;28;45343;-80
2022/07/01 01:23:24;;;;;;;;;0.67;0.67;;;;;31.67;26.38;101211.19;5018891;28;45482;-80
2022/07/01 01:25:49;;;;;;;;;0.67;0.67;;;;;31.83;26.23;101225.69;5037304;28;45573;-80
2022/07/01 01:28:15;;;;;;;;;1.00;1.00;;;;;31.83;26.45;101233.94;5018408;28;45491;-80
2022/07/01 01:30:40;;;;;;;;;3.00;1.67;;;;;31.81;26.84;101225.81;5037412;28;45351;-80
2022/07/01 01:33:08;;;;;;;;;0.67;0.67;;;;;31.83;26.41;101224.81;5036891;28;45551;-79
2022/07/01 01:35:34;;;;;;;;;0.00;0.00;;;;;31.84;26.44;101243.91;5036996;28;46299;-80
2022/07/01 01:37:59;;;;;;;;;0.67;0.67;;;;;31.78;27.01;101247.03;5036834;28;45725;-80
2022/07/01 01:40:25;;;;;;;;;2.00;1.67;;;;;31.83;26.50;101242.16;5036943;28;45225;-80
2022/07/01 01:42:53;;;;;;;;;0.25;0.25;;;;;31.51;26.38;101206.63;5037156;28;45250;-80
2022/07/01 01:45:18;;;;;;;;;1.67;0.67;;;;;31.75;26.49;101244.50;5018794;28;49832;-80
2022/07/01 01:47:44;;;;;;;;;1.00;1.00;;;;;31.75;26.49;101252.72;5036558;28;45454;-80
2022/07/01 01:50:12;;;;;;;;;0.75;0.75;;;;;31.64;27.14;101242.41;5036761;28;45445;-80
2022/07/01 01:52:38;;;;;;;;;1.00;1.00;;;;;31.61;27.15;101242.63;5036656;28;45282;-79
2022/07/01 01:55:04;;;;;;;;;2.00;1.67;;;;;31.69;26.67;101243.03;5036632;28;45398;-79
2022/07/01 01:57:29;;;;;;;;;1.00;1.00;;;;;31.69;26.56;101248.50;5036451;28;46225;-80
2022/07/01 01:59:55;;;;;;;;;0.33;0.33;;;;;31.81;26.59;101257.81;5036692;28;45401;-79
2022/07/01 02:02:20;;;;;;;;;0.00;0.00;;;;;31.61;27.13;101231.66;5036322;28;45530;-80
2022/07/01 02:04:45;;;;;;;;;0.67;0.67;;;;;31.55;27.15;101241.09;5036326;28;46411;-79
2022/07/01 02:07:11;;;;;;;;;5.00;2.00;;;;;31.65;27.34;101255.16;5036199;28;45325;-79
2022/07/01 02:09:36;;;;;;;;;1.67;1.67;;;;;31.73;27.30;101269.28;5035912;28;45347;-79
2022/07/01 02:12:02;;;;;;;;;2.00;2.00;;;;;31.60;27.13;101251.81;5036243;28;45440;-79
2022/07/01 02:14:27;;;;;;;;;2.00;2.00;;;;;31.52;27.04;101243.13;5035591;28;45489;-79
2022/07/01 02:16:53;;;;;;;;;1.67;1.67;;;;;31.72;27.09;101270.25;5036280;28;45195;-79
2022/07/01 02:19:18;;;;;;;;;2.00;2.00;;;;;31.68;26.76;101267.81;5036545;28;45393;-79
2022/07/01 02:21:43;;;;;;;;;1.00;1.00;;;;;31.59;27.28;101247.28;5036265;28;45387;-79
2022/07/01 02:24:09;;;;;;;;;1.00;1.00;;;;;31.61;27.28;101259.94;5036448;28;45398;-79
2022/07/01 02:26:35;;;;;;;;;1.00;1.00;;;;;31.66;27.07;101270.66;5036119;28;45337;-80
2022/07/01 02:29:01;;;;;;;;;0.67;0.67;;;;;31.60;27.09;101260.94;5018147;28;45415;-80
2022/07/01 02:31:26;;;;;;;;;1.67;1.67;;;;;31.67;27.28;101258.69;5036252;28;45603;-79
2022/07/01 02:33:51;;;;;;;;;2.33;2.33;;;;;31.61;26.67;101245.34;5036219;28;45367;-79
2022/07/01 02:36:17;;;;;;;;;1.00;1.00;;;;;31.71;27.23;101268.47;5036019;28;45312;-80
2022/07/01 02:38:42;;;;;;;;;2.00;2.00;;;;;31.64;27.42;101261.63;5035055;28;45309;-80
2022/07/01 02:41:09;;;;;;;;;1.67;1.67;;;;;31.56;26.76;101248.38;5036314;28;45428;-79
2022/07/01 02:43:35;;;;;;;;;0.67;0.67;;;;;31.69;27.27;101273.19;5035829;28;45500;-80
2022/07/01 02:46:00;;;;;;;;;4.00;1.67;;;;;31.46;27.33;101269.97;5036241;28;45260;-80
2022/07/01 02:48:26;;;;;;;;;1.00;1.00;;;;;31.34;26.71;101254.28;5036107;28;45524;-80
2022/07/01 02:50:51;;;;;;;;;2.00;2.00;;;;;31.51;27.03;101271.56;5018200;28;45339;-80
2022/07/01 02:53:16;;;;;;;;;1.67;1.67;;;;;31.51;27.00;101277.03;5035892;28;45328;-79
2022/07/01 02:55:42;;;;;;;;;2.00;2.00;;;;;31.48;27.07;101278.13;5036171;28;51714;-79
2022/07/01 02:58:07;;;;;;;;;0.67;0.67;;;;;31.48;27.39;101265.28;5037533;28;45364;-80
2022/07/01 03:00:32;;;;;;;;;1.00;1.00;;;;;31.45;27.29;101278.31;5071762;28;45311;-79
2022/07/01 03:02:58;;;;;;;;;0.67;0.67;;;;;31.39;27.19;101262.22;5038068;28;48064;-80
2022/07/01 03:05:23;;;;;;;;;2.33;1.00;;;;;31.44;27.63;101282.88;5056266;28;45470;-80
2022/07/01 03:07:48;;;;;;;;;1.67;1.67;;;;;31.29;27.21;101257.31;5056785;28;45324;-79
2022/07/01 03:10:14;;;;;;;;;0.67;0.67;;;;;31.50;27.62;101288.97;5073427;28;45309;-80
2022/07/01 03:12:40;;;;;;;;;4.00;1.67;;;;;31.35;27.54;101267.00;5056259;28;45519;-80
2022/07/01 03:15:14;;;;;;;;;1.00;1.00;;;;;31.44;26.72;101284.75;5058337;28;45343;-79
2022/07/01 03:17:44;;;;;;;;;1.67;1.67;;;;;31.48;27.15;101289.09;5040088;28;45483;-80
2022/07/01 03:20:13;;;;;;;;;1.00;1.00;;;;;31.46;27.34;101296.50;5060103;28;45485;-80
2022/07/01 03:22:39;;;;;;;;;1.67;1.67;;;;;31.48;27.51;101294.56;5055687;28;46324;-79
2022/07/01 03:25:06;;;;;;;;;3.00;2.00;;;;;31.51;27.21;101296.25;5058162;28;45395;-79
2022/07/01 03:27:32;;;;;;;;;2.00;2.00;;;;;31.35;27.16;101288.94;5055963;28;45367;-79
2022/07/01 03:29:57;;;;;;;;;1.67;1.67;;;;;31.37;27.35;101286.09;5039554;28;45547;-79
2022/07/01 03:32:23;;;;;;;;;3.33;1.67;;;;;31.49;27.17;101307.31;5055657;28;46284;-79
2022/07/01 03:34:50;;;;;;;;;4.33;2.33;;;;;31.43;27.63;101314.00;5055290;28;45178;-79
2022/07/01 03:37:17;;;;;;;;;1.00;1.00;;;;;31.48;27.31;101311.88;5055744;28;45350;-79
2022/07/01 03:39:43;;;;;;;;;2.00;2.00;;;;;31.51;27.06;101313.56;5055388;28;45429;-79
2022/07/01 03:42:09;;;;;;;;;3.00;2.00;;;;;31.53;26.76;101302.50;5055177;28;46376;-80
2022/07/01 03:44:36;;;;;;;;;1.67;1.67;;;;;31.57;26.99;101307.69;5055167;28;45384;-79
2022/07/01 03:47:02;;;;;;;;;3.00;2.67;;;;;31.46;27.01;101283.69;5055539;28;45407;-79
2022/07/01 03:49:28;;;;;;;;;2.00;2.00;;;;;31.54;27.30;101315.25;5055509;28;45387;-79
2022/07/01 03:51:54;;;;;;;;;1.67;1.67;;;;;31.44;26.45;101309.44;5040127;28;48255;-79
2022/07/01 03:57:17;;;;;;;;;3.67;2.67;;;;;31.29;26.95;101289.28;4963220;28;45529;-79
2022/07/01 03:59:43;;;;;;;;;2.00;2.00;;;;;31.40;27.28;101303.25;4957251;28;45617;-79
2022/07/01 04:02:08;;;;;;;;;2.00;2.00;;;;;31.39;26.70;101317.03;4957395;28;46169;-79
2022/07/01 04:04:35;;;;;;;;;2.00;2.00;;;;;31.23;27.28;101328.91;4940977;28;45515;-79
2022/07/01 04:07:04;;;;;;;;;1.67;1.67;;;;;31.12;27.19;101326.84;4957510;28;45535;-79
2022/07/01 04:09:30;;;;;;;;;3.33;2.33;;;;;30.92;27.14;101311.50;4957287;28;45291;-79
2022/07/01 04:11:56;;;;;;;;;1.67;1.67;;;;;30.84;27.29;101321.16;4956991;28;45353;-79
2022/07/01 04:14:24;;;;;;;;;2.00;2.00;;;;;30.83;27.64;101333.06;4956945;28;45361;-80
2022/07/01 04:16:49;;;;;;;;;3.33;2.33;;;;;30.72;27.79;101328.22;4957369;28;45350;-79
2022/07/01 04:19:15;;;;;;;;;3.00;2.00;;;;;30.58;28.25;101309.81;4957308;28;45395;-79
2022/07/01 04:24:25;;;;;;;;;1.67;1.67;;;;;30.74;27.70;101324.41;4957210;28;45487;-79
2022/07/01 04:26:51;;;;;;;;;1.33;1.33;;;;;30.70;27.84;101305.50;4956717;28;45405;-78
2022/07/01 04:29:17;;;;;;;;;1.67;1.67;;;;;30.89;27.76;101324.50;4940822;28;45480;-78
2022/07/01 04:31:43;;;;;;;;;2.00;2.00;;;;;30.84;27.89;101337.59;4957258;28;46578;-79
2022/07/01 04:34:09;;;;;;;;;2.67;2.67;;;;;30.78;27.68;101334.22;5017819;28;45490;-81
2022/07/01 04:36:35;;;;;;;;;1.67;1.67;;;;;30.67;27.49;101335.81;5018113;28;45261;-77
2022/07/01 04:39:01;;;;;;;;;2.00;1.33;;;;;30.60;27.79;101299.66;5018155;28;45237;-77
2022/07/01 04:44:10;;;;;;;;;2.67;1.67;;;;;30.70;27.60;101297.28;5017793;28;45495;-77
2022/07/01 04:46:36;;;;;;;;;3.00;2.00;;;;;30.95;27.47;101325.00;5017843;28;45406;-77
2022/07/01 04:49:01;;;;;;;;;4.00;4.00;;;;;31.04;27.22;101326.41;5018038;28;45202;-76
2022/07/01 04:51:28;;;;;;;;;1.67;0.33;;;;;31.16;27.53;101312.94;4999873;28;48363;-77
2022/07/01 04:53:56;;;;;;;;;3.00;3.00;;;;;31.33;26.81;101333.88;5017638;28;45305;-77
2022/07/01 04:56:21;;;;;;;;;3.00;2.00;;;;;31.19;26.91;101327.34;5023436;28;45479;-77
2022/07/01 04:58:47;;;;;;;;;2.67;2.67;;;;;31.26;27.52;101345.19;5037540;28;45477;-77
2022/07/01 05:01:13;;;;;;;;;5.67;3.67;;;;;31.32;27.09;101349.41;5037185;28;45363;-77
2022/07/01 05:03:39;;;;;;;;;3.00;2.00;;;;;31.29;26.56;101330.41;5036749;28;45497;-77
2022/07/01 05:06:04;;;;;;;;;2.33;2.00;;;;;31.39;26.93;101349.94;5037646;28;45530;-78
2022/07/01 05:08:30;;;;;;;;;3.33;3.00;;;;;31.42;27.31;101349.75;5036824;28;45624;-77
2022/07/01 05:10:55;;;;;;;;;2.33;2.33;;;;;31.39;26.51;101344.47;5037247;28;46173;-77
2022/07/01 05:13:20;;;;;;;;;3.00;3.00;;;;;31.34;27.22;101350.22;5037107;28;52764;-77
2022/07/01 05:15:46;;;;;;;;;4.00;4.00;;;;;31.39;26.82;101366.41;5037221;28;45390;-77
2022/07/01 05:23:39;;;;;;;;;4.33;3.00;;;;;31.34;26.86;101369.41;5042046;28;45382;-78
2022/07/01 05:26:04;;;;;;;;;5.00;3.67;;;;;31.34;26.31;101363.94;5037039;28;45412;-77
2022/07/01 05:28:30;;;;;;;;;3.67;3.00;;;;;31.37;26.86;101358.25;5018883;28;45847;-78
2022/07/01 05:30:56;;;;;;;;;3.33;2.67;;;;;31.33;26.56;101362.16;5036915;28;45460;-77
2022/07/01 05:33:23;;;;;;;;;2.00;2.00;;;;;31.30;26.54;101360.47;5037129;28;45435;-77
2022/07/01 05:35:49;;;;;;;;;2.00;2.00;;;;;31.23;26.66;101363.69;5036681;28;45461;-77
2022/07/01 05:38:14;;;;;;;;;3.33;2.67;;;;;31.40;26.22;101374.53;5036481;28;45427;-77
2022/07/01 05:40:40;;;;;;;;;3.67;2.00;;;;;31.30;26.64;101349.50;5036723;28;46429;-77
2022/07/01 05:43:05;;;;;;;;;2.00;2.00;;;;;31.28;26.33;101334.13;5036474;28;45327;-77
2022/07/01 05:45:30;;;;;;;;;3.33;2.33;;;;;31.63;26.24;101370.47;5019017;28;45278;-77
2022/07/01 05:47:56;;;;;;;;;4.33;2.33;;;;;31.51;26.04;101340.13;5018824;28;45578;-79
2022/07/01 05:50:22;;;;;;;;;3.00;2.00;;;;;31.90;26.00;101378.00;5036458;28;46211;-77
2022/07/01 05:52:48;;;;;;;;;3.67;2.67;;;;;31.85;25.78;101368.28;5016526;28;45742;-77
2022/07/01 05:55:13;;;;;;;;;3.00;3.00;;;;;31.64;25.95;101343.91;5033843;28;45750;-76
2022/07/01 05:57:38;;;;;;;;;3.00;2.00;;;;;31.81;25.84;101362.97;5041309;28;45649;-77
2022/07/01 06:00:04;;;;;;;;;1.00;1.00;;;;;31.90;26.04;101364.28;5036898;28;45591;-77
2022/07/01 06:02:30;;;;;;;;;2.00;2.00;;;;;31.80;26.38;101350.22;5035086;28;45811;-77
2022/07/01 06:04:55;;;;;;;;;3.00;1.67;;;;;31.89;26.02;101370.72;5036068;28;45525;-77
2022/07/01 06:07:20;;;;;;;;;2.00;1.00;;;;;31.91;25.88;101360.56;5036661;28;45400;-77
2022/07/01 06:09:46;;;;;;;;;1.67;1.67;;;;;32.10;25.71;101378.63;5039519;28;46400;-78
2022/07/01 06:12:11;;;;;;;;;2.00;2.00;;;;;31.85;25.13;101368.28;5035326;28;45451;-77
2022/07/01 06:14:37;;;;;;;;;1.67;1.67;;;;;31.82;25.45;101363.84;5035982;28;45606;-78
2022/07/01 06:17:03;;;;;;;;;3.67;3.00;;;;;31.98;25.71;101391.22;5035555;28;45632;-77
2022/07/01 06:19:29;;;;;;;;;4.00;2.67;;;;;32.06;25.30;101386.16;5034962;28;46750;-76
2022/07/01 06:21:54;;;;;;;;;1.67;1.67;;;;;31.95;25.53;101369.47;5040122;28;45537;-76
2022/07/01 06:24:19;;;;;;;;;2.00;2.00;;;;;32.03;25.15;101390.97;5051831;28;45662;-75
2022/07/01 06:26:46;;;;;;;;;2.00;2.00;;;;;31.99;25.30;101385.63;5043972;28;45524;-75
2022/07/01 06:29:13;;;;;;;;;3.00;2.00;;;;;31.91;25.35;101378.88;5016067;28;47805;-75
2022/07/01 06:31:38;;;;;;;;;1.67;1.67;;;;;31.77;24.83;101380.59;5023653;28;45534;-76
2022/07/01 06:34:03;;;;;;;;;1.00;1.00;;;;;31.72;25.38;101387.34;5033893;28;45514;-75
2022/07/01 06:36:29;;;;;;;;;1.67;1.67;;;;;31.55;25.24;101380.09;5034647;28;45716;-75
2022/07/01 06:38:54;;;;;;;;;1.00;1.00;;;;;31.73;25.04;101384.50;5034615;28;45826;-75
2022/07/01 06:41:28;;;;;;;;;1.33;1.33;;;;;31.70;24.72;101372.81;5034773;28;45407;-75
2022/07/01 06:44:01;;;;;;;;;1.33;1.33;;;;;31.91;24.56;101385.25;5035312;28;45433;-75
2022/07/01 06:46:27;;;;;;;;;1.33;1.33;;;;;32.10;24.96;101409.69;5035481;28;45363;-74
2022/07/01 06:48:53;;;;;;;;;0.00;0.00;;;;;32.06;24.51;101399.88;5035374;28;45398;-75
2022/07/01 06:51:19;;;;;;;;;2.00;1.33;;;;;32.09;24.64;101388.69;5035335;28;45575;-75
2022/07/01 06:53:46;;;;;;;;;1.00;1.00;;;;;31.95;23.71;101384.06;5035534;28;45512;-75
2022/07/01 06:56:14;;;;;;;;;2.25;0.00;;;;;32.13;24.17;101401.28;5036622;28;45335;-75
2022/07/01 06:58:40;;;;;;;;;2.00;1.00;;;;;32.31;24.02;101414.88;5035342;28;45560;-76
2022/07/01 07:01:05;;;;;;;;;3.00;1.67;;;;;32.15;24.34;101391.13;5033943;28;45257;-76
2022/07/01 07:03:32;;;;;;;;;2.00;1.00;;;;;32.04;24.19;101401.84;5016850;28;45423;-77
2022/07/01 07:06:00;;;;;;;;;0.00;0.00;;;;;32.10;24.22;101414.31;5034561;28;45508;-77
2022/07/01 07:08:25;;;;;;;;;1.00;1.00;;;;;31.93;23.80;101410.72;5017217;28;47994;-77
2022/07/01 07:10:51;;;;;;;;;3.00;1.33;;;;;31.92;24.21;101408.09;5011476;28;45374;-76
2022/07/01 07:13:16;;;;;;;;;0.75;0.75;;;;;31.89;24.12;101414.63;5017429;28;45190;-76
2022/07/01 07:15:41;;;;;;;;;0.25;0.25;;;;;31.93;23.80;101407.97;5034285;28;54382;-77
2022/07/01 07:18:07;;;;;;;;;0.33;0.33;;;;;32.02;23.92;101403.78;5034768;28;45823;-79
2022/07/01 07:20:33;;;;;;;;;1.00;0.00;;;;;31.77;24.20;101420.84;5034518;28;45521;-76
2022/07/01 07:22:59;;;;;;;;;0.00;0.00;;;;;31.80;23.28;101409.69;5034674;28;45496;-76
2022/07/01 07:25:24;;;;;;;;;0.00;0.00;;;;;31.77;23.10;101388.84;5036285;28;45494;-76
2022/07/01 07:27:50;;;;;;;;;2.00;0.33;;;;;31.86;23.14;101411.22;5038277;28;46343;-76
2022/07/01 07:30:16;;;;;;;;;0.33;0.33;;;;;31.67;23.08;101409.53;5037888;28;45466;-76
2022/07/01 07:32:42;;;;;;;;;0.33;0.33;;;;;31.44;23.14;101410.91;5038596;28;45410;-76
2022/07/01 07:35:09;;;;;;;;;1.33;0.67;;;;;31.47;22.93;101414.31;5019613;28;45645;-76
2022/07/01 07:37:34;;;;;;;;;0.00;0.00;;;;;31.42;23.02;101410.06;5038425;28;45391;-77
2022/07/01 07:40:00;;;;;;;;;1.00;0.00;;;;;31.53;22.79;101390.25;5038659;28;45266;-77
2022/07/01 07:42:27;;;;;;;;;0.00;0.00;;;;;31.85;23.21;101398.47;5047157;28;46423;-76
2022/07/01 07:44:52;;;;;;;;;1.00;0.00;;;;;31.70;22.94;101397.50;5055561;28;45508;-77
2022/07/01 07:47:18;;;;;;;;;0.00;0.00;;;;;31.55;23.03;101391.94;5043637;28;45778;-77
2022/07/01 07:49:43;;;;;;;;;1.67;0.00;;;;;31.68;23.13;101408.56;5038208;28;45546;-77
2022/07/01 07:52:08;;;;;;;;;1.00;1.00;;;;;31.83;22.64;101404.03;5038465;28;45306;-77
2022/07/01 07:54:34;;;;;;;;;0.67;0.67;;;;;31.98;22.63;101399.47;5038643;28;45389;-77
2022/07/01 07:57:00;;;;;;;;;0.67;0.67;;;;;32.06;23.13;101413.59;5033950;28;45598;-77
2022/07/01 07:59:25;;;;;;;;;0.67;0.00;;;;;32.24;22.21;101416.25;5007413;28;45566;-78
2022/07/01 08:01:50;;;;;;;;;1.67;0.33;;;;;32.22;22.77;101401.72;5026501;28;46384;-79
2022/07/01 08:04:16;;;;;;;;;0.00;0.00;;;;;32.13;22.26;101378.44;5031085;28;45431;-75
2022/07/01 08:06:41;;;;;;;;;0.33;0.33;;;;;32.22;22.14;101413.59;5032878;28;45766;-75
2022/07/01 08:09:06;;;;;;;;;2.00;1.00;;;;;32.27;22.60;101403.19;5031447;28;45475;-75
2022/07/01 08:11:32;;;;;;;;;1.67;0.33;;;;;32.31;22.29;101398.41;5031991;28;45387;-75
2022/07/01 08:13:58;;;;;;;;;1.33;0.00;;;;;32.52;21.86;101417.22;5035345;28;45615;-75
2022/07/01 08:16:23;;;;;;;;;1.67;1.00;;;;;32.53;21.71;101413.50;5032201;28;45838;-77
2022/07/01 08:18:49;;;;;;;;;5.00;5.00;;;;;32.23;21.63;101411.72;5032206;28;45475;-78
2022/07/01 08:21:14;;;;;;;;;2.00;1.67;;;;;32.06;20.93;101394.38;5032374;28;45459;-76
2022/07/01 08:23:39;;;;;;;;;0.00;0.00;;;;;32.06;21.67;101419.09;5014573;28;45791;-76
2022/07/01 08:26:05;;;;;;;;;0.25;0.00;;;;;32.03;21.24;101407.44;5031970;28;46289;-76
2022/07/01 08:28:30;;;;;;;;;5.00;4.00;;;;;32.18;21.86;101417.50;5034049;28;45491;-76
2022/07/01 08:30:55;;;;;;;;;1.00;1.00;;;;;31.95;21.69;101406.00;5013982;28;45897;-78
2022/07/01 08:33:21;;;;;;;;;0.33;0.33;;;;;32.03;21.30;101404.69;5034850;28;45488;-77
2022/07/01 08:35:46;;;;;;;;;1.00;1.00;;;;;31.97;21.12;101411.44;5032657;28;45714;-77
2022/07/01 08:38:12;;;;;;;;;4.00;4.00;;;;;32.04;21.72;101428.38;5028736;28;45559;-76
2022/07/01 08:40:37;;;;;;;;;1.00;1.00;;;;;31.89;21.53;101402.78;5031983;28;45908;-75
2022/07/01 08:43:04;;;;;;;;;0.00;0.00;;;;;32.12;20.79;101446.19;5011446;28;45603;-74
2022/07/01 08:45:32;;;;;;;;;0.67;0.67;;;;;32.11;21.53;101430.69;5032159;28;45484;-75
2022/07/01 08:48:03;;;;;;;;;3.00;1.00;;;;;32.06;20.39;101427.31;5029336;28;45618;-77
2022/07/01 08:50:34;;;;;;;;;0.00;0.00;;;;;32.31;20.90;101454.19;5036667;28;45844;-76
2022/07/01 08:53:00;;;;;;;;;0.00;0.00;;;;;32.26;20.59;101444.47;5037105;28;45395;-77
2022/07/01 08:55:26;;;;;;;;;0.67;0.00;;;;;32.12;21.00;101432.47;5019308;28;48304;-77
2022/07/01 08:57:51;;;;;;;;;0.00;0.00;;;;;32.24;20.91;101429.97;5055972;28;45313;-77
2022/07/01 09:00:17;;;;;;;;;0.00;0.00;;;;;32.24;20.19;101439.06;5057267;28;45220;-77
2022/07/01 09:03:01;;;;;;;;;1.00;0.00;;;;;31.98;20.69;101463.50;5039087;28;45546;-77
2022/07/01 09:05:28;;;;;;;;;0.00;0.00;;;;;32.23;20.60;101458.41;5037034;28;45349;-77
2022/07/01 09:08:11;;;;;;;;;0.67;0.33;;;;;32.38;20.30;101462.06;5017957;28;45723;-77
2022/07/01 09:10:37;;;;;;;;;0.00;0.00;;;;;32.30;20.66;101440.56;5036577;28;45435;-77
2022/07/01 09:13:07;;;;;;;;;1.00;1.00;;;;;32.78;19.34;101459.56;5036238;28;45451;-77
2022/07/01 09:15:33;;;;;;;;;3.00;2.00;;;;;32.77;20.69;101457.78;5036355;28;45433;-77
2022/07/01 09:18:05;;;;;;;;;22.00;19.67;;;;;32.86;20.58;101453.59;5036134;28;45503;-77
2022/07/01 09:20:37;;;;;;;;;3.33;2.00;;;;;33.04;20.70;101463.41;5036238;28;45655;-77
2022/07/01 09:23:11;;;;;;;;;0.00;0.00;;;;;32.91;19.70;101444.06;5034515;28;45488;-77
2022/07/01 09:25:43;;;;;;;;;1.00;0.00;;;;;33.14;20.75;101458.19;5036754;28;45360;-77
2022/07/01 09:28:20;;;;;;;;;4.67;3.00;;;;;33.35;19.91;101469.66;5036408;28;45435;-77
2022/07/01 09:30:47;;;;;;;;;0.00;0.00;;;;;33.06;20.63;101466.91;5036523;28;45328;-77
2022/07/01 09:33:17;;;;;;;;;0.50;0.50;;;;;33.12;20.44;101477.53;5036462;28;45246;-77
2022/07/01 09:35:44;;;;;;;;;0.00;0.00;;;;;33.02;19.57;101458.97;5018662;28;46572;-77
2022/07/01 09:38:12;;;;;;;;;1.00;1.00;;;;;33.29;19.77;101475.56;5036690;28;45331;-77
2022/07/01 09:40:58;;;;;;;;;1.00;0.00;;;;;33.33;19.82;101457.88;5036905;28;45393;-77
2022/07/01 09:43:26;;;;;;;;;1.75;0.00;;;;;33.48;19.69;101473.34;5036895;28;45542;-77
2022/07/01 09:45:57;;;;;;;;;0.00;0.00;;;;;33.49;19.24;101464.13;5036076;28;46444;-77
2022/07/01 09:48:24;;;;;;;;;1.00;1.00;;;;;33.50;19.68;101465.91;5017622;28;45304;-77
2022/07/01 09:50:50;;;;;;;;;0.00;0.00;;;;;33.51;19.81;101467.66;5036733;28;45324;-77
2022/07/01 09:53:16;;;;;;;;;0.00;0.00;;;;;33.67;19.87;101466.63;5036189;28;45524;-77
2022/07/01 09:55:42;;;;;;;;;2.33;0.00;;;;;33.77;19.19;101464.16;5018646;28;46278;-77
2022/07/01 09:58:07;;;;;;;;;2.00;1.00;;;;;33.98;19.15;101467.31;5050151;28;45806;-77
2022/07/01 10:00:36;;;;;;;;;2.67;1.00;;;;;34.02;18.89;101474.38;5056379;28;45324;-77
2022/07/01 10:03:05;;;;;;;;;0.00;0.00;;;;;34.03;19.44;101470.63;5056466;28;45378;-77
2022/07/01 10:05:36;;;;;;;;;0.00;0.00;;;;;34.15;19.33;101475.28;5038120;28;48298;-77
2022/07/01 10:08:38;;;;;;;;;1.00;0.00;;;;;33.83;19.50;101478.38;5056501;28;45379;-77
2022/07/01 10:11:38;;;;;;;;;0.00;0.00;;;;;33.92;19.98;101479.63;5056251;28;45423;-77
2022/07/01 10:14:06;;;;;;;;;0.00;0.00;;;;;33.88;18.96;101479.94;5037734;28;45671;-77
2022/07/01 10:16:32;;;;;;;;;0.00;0.00;;;;;34.01;19.33;101458.84;5056292;28;45505;-77
2022/07/01 10:18:58;;;;;;;;;0.75;0.00;;;;;34.23;19.38;101463.72;5056040;28;45417;-77
2022/07/01 10:21:28;;;;;;;;;1.00;0.00;;;;;34.19;18.89;101485.09;5056296;28;45467;-77
2022/07/01 10:24:11;;;;;;;;;0.00;0.00;;;;;33.98;19.05;101484.72;5056464;28;45379;-77
2022/07/01 10:26:38;;;;;;;;;0.00;0.00;;;;;34.25;19.28;101483.81;5038054;28;47788;-77
2022/07/01 10:29:03;;;;;;;;;0.00;0.00;;;;;34.26;19.43;101468.16;5037162;28;45343;-77
2022/07/01 10:31:38;;;;;;;;;0.00;0.00;;;;;34.31;19.12;101450.34;5037819;28;45247;-77
2022/07/01 10:34:04;;;;;;;;;0.00;0.00;;;;;34.49;18.82;101470.19;5055972;28;45546;-77
2022/07/01 10:36:36;;;;;;;;;0.00;0.00;;;;;34.53;19.39;101465.34;5056175;28;46505;-77
2022/07/01 10:39:07;;;;;;;;;0.50;0.00;;;;;34.53;18.89;101480.00;5055755;28;45348;-78
2022/07/01 10:41:34;;;;;;;;;0.00;0.00;;;;;34.50;18.89;101473.81;5037809;28;45416;-77
2022/07/01 10:44:04;;;;;;;;;1.00;0.00;;;;;34.59;18.08;101464.03;5055571;28;45641;-77
2022/07/01 10:46:56;;;;;;;;;0.00;0.00;;;;;34.65;19.05;101477.38;5055595;28;45536;-78
2022/07/01 10:49:34;;;;;;;;;0.25;0.25;;;;;34.36;19.70;101481.19;5037662;28;45814;-77
2022/07/01 10:51:59;;;;;;;;;1.00;0.00;;;;;34.22;19.32;101481.25;5055950;28;45505;-77
2022/07/01 10:54:34;;;;;;;;;0.33;0.33;;;;;34.20;19.59;101483.22;5055511;28;45478;-78
2022/07/01 10:57:19;;;;;;;;;0.00;0.00;;;;;34.31;19.57;101472.38;5049987;28;46238;-77
2022/07/01 10:59:53;;;;;;;;;0.00;0.00;;;;;34.11;18.86;101454.47;5034547;28;45302;-77
2022/07/01 11:02:30;;;;;;;;;0.00;0.00;;;;;34.42;18.58;101471.63;5035532;28;45579;-77
2022/07/01 11:04:59;;;;;;;;;2.67;2.67;;;;;34.67;18.57;101473.50;5017522;28;45385;-77
2022/07/01 11:07:28;;;;;;;;;0.00;0.00;;;;;34.86;17.94;101444.63;5034819;28;46521;-77
2022/07/01 11:09:53;;;;;;;;;1.50;0.00;;;;;34.87;18.25;101451.91;5017062;28;45400;-77
2022/07/01 11:12:24;;;;;;;;;2.00;1.00;;;;;34.55;18.68;101476.28;5034877;28;45955;-78
2022/07/01 11:14:50;;;;;;;;;2.00;1.00;;;;;34.31;18.61;101432.94;5035181;28;45429;-77
2022/07/01 11:17:17;;;;;;;;;2.00;1.00;;;;;34.33;18.53;101469.50;5016840;28;48308;-77
2022/07/01 11:19:48;;;;;;;;;0.00;0.00;;;;;34.19;19.02;101468.59;5035348;28;45404;-77
2022/07/01 11:22:23;;;;;;;;;0.00;0.00;;;;;34.27;18.97;101473.53;5035008;28;45379;-78
2022/07/01 11:24:53;;;;;;;;;1.67;0.33;;;;;34.23;18.21;101482.13;5035053;28;45461;-77
2022/07/01 11:27:19;;;;;;;;;0.00;0.00;;;;;34.58;18.26;101481.56;5034305;28;45492;-77
2022/07/01 11:29:44;;;;;;;;;0.00;0.00;;;;;34.68;18.08;101455.09;5034961;28;45356;-77
2022/07/01 11:32:10;;;;;;;;;1.00;0.00;;;;;35.00;17.99;101476.72;5035278;28;45380;-77
2022/07/01 11:34:37;;;;;;;;;3.67;1.00;;;;;34.85;18.21;101471.34;5034771;28;45401;-77
2022/07/01 11:40:11;;;;;;;;;0.00;0.00;;;;;34.97;17.98;101457.66;5034756;28;45336;-77